createdAt,value
2018-12-30T00:00:03.623Z,14.93
2018-12-30T00:02:30.129Z,12.80
2018-12-30T00:04:56.775Z,13.60
2018-12-30T00:07:23.534Z,13.70
2018-12-30T00:09:50.208Z,13.67
2018-12-30T00:12:16.853Z,14.07
2018-12-30T00:14:43.722Z,14.83
2018-12-30T00:17:10.102Z,13.70
2018-12-30T00:19:45.334Z,13.77
2018-12-30T00:22:04.968Z,14.57
2018-12-30T00:24:31.424Z,14.17
2018-12-30T00:26:57.896Z,13.60
2018-12-30T00:29:24.448Z,13.43
2018-12-30T00:31:50.912Z,11.77
2018-12-30T00:34:17.365Z,12.83
2018-12-30T00:36:43.836Z,12.03
2018-12-30T00:39:10.712Z,13.53
2018-12-30T00:41:37.180Z,12.90
2018-12-30T00:44:03.640Z,11.77
2018-12-30T00:46:30.206Z,10.87
2018-12-30T00:48:56.756Z,12.07
2018-12-30T00:51:23.232Z,12.67
2018-12-30T00:53:49.678Z,12.73
2018-12-30T00:56:16.443Z,12.83
2018-12-30T00:58:42.896Z,12.93
2018-12-30T01:01:09.520Z,13.90
2018-12-30T01:03:36.015Z,12.80
2018-12-30T01:06:02.567Z,12.03
2018-12-30T01:08:29.038Z,14.60
2018-12-30T01:10:55.494Z,12.17
2018-12-30T01:13:22.265Z,12.27
2018-12-30T01:15:48.815Z,13.53
2018-12-30T01:18:15.215Z,14.07
2018-12-30T01:20:41.737Z,13.13
2018-12-30T01:23:08.203Z,11.80
2018-12-30T01:25:34.660Z,12.37
2018-12-30T01:28:01.434Z,12.87
2018-12-30T01:30:27.997Z,13.63
2018-12-30T01:32:54.605Z,12.07
2018-12-30T01:35:21.168Z,12.03
2018-12-30T01:37:47.556Z,13.53
2018-12-30T01:40:13.904Z,13.33
2018-12-30T01:42:40.378Z,14.53
2018-12-30T01:45:07.135Z,14.07
2018-12-30T01:47:33.681Z,14.17
2018-12-30T01:50:00.150Z,14.70
2018-12-30T01:52:26.743Z,17.13
2018-12-30T01:54:53.232Z,17.17
2018-12-30T01:57:19.788Z,15.33
2018-12-30T01:59:46.270Z,14.13
2018-12-30T02:02:12.749Z,15.07
2018-12-30T02:04:39.361Z,18.53
2018-12-30T02:07:05.815Z,16.43
2018-12-30T02:09:32.383Z,16.73
2018-12-30T02:11:58.948Z,16.97
2018-12-30T02:14:25.538Z,16.33
2018-12-30T02:16:52.292Z,15.80
2018-12-30T02:19:18.769Z,14.53
2018-12-30T02:21:45.320Z,14.23
2018-12-30T02:24:11.809Z,15.70
2018-12-30T02:26:38.260Z,15.83
2018-12-30T02:29:04.713Z,15.30
2018-12-30T02:31:31.390Z,14.57
2018-12-30T02:33:57.876Z,16.07
2018-12-30T02:36:24.351Z,15.57
2018-12-30T02:38:50.908Z,15.03
2018-12-30T02:41:17.283Z,13.63
2018-12-30T02:43:43.727Z,14.40
2018-12-30T02:46:10.420Z,14.67
2018-12-30T02:48:36.870Z,14.87
2018-12-30T02:51:03.456Z,14.13
2018-12-30T02:53:29.918Z,13.17
2018-12-30T02:55:56.392Z,14.43
2018-12-30T02:58:22.775Z,13.23
2018-12-30T03:00:49.543Z,12.43
2018-12-30T03:03:15.913Z,12.87
2018-12-30T03:05:42.435Z,13.63
2018-12-30T03:08:08.951Z,12.87
2018-12-30T03:10:35.669Z,13.37
2018-12-30T03:13:02.025Z,11.20
2018-12-30T03:15:28.401Z,12.33
2018-12-30T03:17:54.857Z,10.93
2018-12-30T03:20:21.321Z,10.27
2018-12-30T03:22:47.792Z,8.77
2018-12-30T03:25:14.253Z,9.80
2018-12-30T03:27:40.732Z,9.97
2018-12-30T03:30:07.265Z,8.13
2018-12-30T03:32:33.741Z,7.80
2018-12-30T03:35:00.199Z,7.43
2018-12-30T03:37:26.675Z,6.67
2018-12-30T03:39:53.248Z,7.47
2018-12-30T03:42:20.407Z,6.60
2018-12-30T03:44:46.993Z,6.43
2018-12-30T03:47:13.566Z,6.57
2018-12-30T03:49:40.021Z,6.50
2018-12-30T03:52:08.650Z,7.50
2018-12-30T03:54:34.771Z,7.17
2018-12-30T03:57:01.340Z,7.07
2018-12-30T03:59:27.801Z,6.27
2018-12-30T04:01:54.301Z,6.60
2018-12-30T04:04:20.702Z,7.33
2018-12-30T04:06:47.087Z,7.70
2018-12-30T04:09:13.544Z,8.17
2018-12-30T04:11:40.003Z,7.80
2018-12-30T04:14:06.375Z,9.07
2018-12-30T04:16:32.847Z,9.07
2018-12-30T04:18:59.240Z,8.10
2018-12-30T04:21:25.788Z,9.00
2018-12-30T04:23:52.264Z,10.07
2018-12-30T04:26:18.640Z,10.30
2018-12-30T04:28:45.214Z,10.83
2018-12-30T04:31:11.596Z,10.93
2018-12-30T04:33:38.075Z,12.63
2018-12-30T04:36:04.525Z,13.13
2018-12-30T04:38:30.890Z,12.67
2018-12-30T04:40:57.253Z,12.80
2018-12-30T04:43:23.646Z,14.23
2018-12-30T04:45:50.092Z,13.40
2018-12-30T04:48:16.672Z,12.93
2018-12-30T04:50:43.122Z,12.90
2018-12-30T04:53:09.596Z,12.83
2018-12-30T04:55:36.056Z,14.97
2018-12-30T04:58:02.521Z,13.10
2018-12-30T05:00:28.868Z,12.03
2018-12-30T05:02:55.460Z,12.37
2018-12-30T05:05:23.283Z,12.63
2018-12-30T05:07:49.917Z,12.80
2018-12-30T05:10:16.278Z,11.70
2018-12-30T05:12:42.723Z,12.13
2018-12-30T05:15:09.303Z,13.23
2018-12-30T05:17:35.854Z,12.10
2018-12-30T05:20:02.934Z,12.37
2018-12-30T05:22:33.864Z,11.63
2018-12-30T05:24:57.784Z,12.73
2018-12-30T05:27:24.167Z,11.77
2018-12-30T05:29:50.639Z,11.67
2018-12-30T05:32:17.089Z,13.30
2018-12-30T05:34:43.564Z,11.17
2018-12-30T05:37:10.021Z,12.57
2018-12-30T05:39:36.424Z,14.47
2018-12-30T05:42:03.000Z,9.77
2018-12-30T05:44:29.471Z,11.40
2018-12-30T05:46:55.919Z,11.00
2018-12-30T05:49:22.492Z,11.13
2018-12-30T05:51:48.856Z,10.30
2018-12-30T05:54:15.471Z,10.17
2018-12-30T05:56:42.020Z,10.10
2018-12-30T05:59:08.496Z,9.00
2018-12-30T06:01:34.944Z,10.73
2018-12-30T06:04:01.340Z,10.23
2018-12-30T06:06:27.892Z,8.50
2018-12-30T06:08:54.339Z,8.23
2018-12-30T06:11:20.817Z,10.47
2018-12-30T06:13:47.269Z,9.30
2018-12-30T06:16:13.737Z,10.20
2018-12-30T06:18:40.196Z,9.77
2018-12-30T06:21:06.769Z,8.60
2018-12-30T06:23:33.144Z,9.27
2018-12-30T06:25:59.613Z,8.53
2018-12-30T06:28:26.068Z,9.43
2018-12-30T06:30:52.601Z,7.60
2018-12-30T06:33:19.028Z,8.20
2018-12-30T06:35:45.400Z,7.97
2018-12-30T06:38:11.751Z,8.77
2018-12-30T06:40:38.368Z,7.53
2018-12-30T06:43:04.924Z,7.97
2018-12-30T06:45:31.506Z,7.77
2018-12-30T06:47:58.055Z,7.37
2018-12-30T06:50:24.542Z,7.83
2018-12-30T06:52:57.644Z,7.63
2018-12-30T06:55:19.477Z,7.33
2018-12-30T06:57:45.919Z,7.97
2018-12-30T07:00:12.407Z,8.40
2018-12-30T07:02:38.857Z,6.83
2018-12-30T07:05:05.372Z,8.33
2018-12-30T07:07:31.946Z,7.90
2018-12-30T07:09:58.720Z,5.93
2018-12-30T07:12:25.126Z,6.73
2018-12-30T07:14:51.645Z,7.30
2018-12-30T07:17:18.133Z,8.00
2018-12-30T07:19:45.407Z,6.60
2018-12-30T07:22:12.288Z,7.47
2018-12-30T07:24:38.844Z,7.37
2018-12-30T07:27:05.483Z,7.33
2018-12-30T07:29:31.829Z,7.20
2018-12-30T07:31:58.200Z,6.97
2018-12-30T07:34:24.760Z,8.43
2018-12-30T07:36:51.237Z,6.87
2018-12-30T07:39:17.711Z,7.07
2018-12-30T07:41:44.200Z,8.20
2018-12-30T07:44:11.695Z,7.70
2018-12-30T07:46:38.343Z,7.40
2018-12-30T07:49:04.911Z,6.87
2018-12-30T07:51:31.361Z,7.97
2018-12-30T07:53:57.748Z,7.03
2018-12-30T07:56:24.224Z,7.50
2018-12-30T07:58:50.572Z,6.00
2018-12-30T08:01:17.040Z,6.67
2018-12-30T08:03:43.630Z,6.87
2018-12-30T08:06:10.045Z,6.77
2018-12-30T08:08:36.572Z,6.47
2018-12-30T08:11:02.966Z,6.37
2018-12-30T08:13:29.395Z,6.10
2018-12-30T08:15:55.746Z,6.27
2018-12-30T08:18:22.224Z,5.63
2018-12-30T08:20:48.675Z,6.00
2018-12-30T08:23:21.368Z,5.70
2018-12-30T08:25:43.463Z,5.43
2018-12-30T08:28:09.913Z,5.87
2018-12-30T08:30:36.259Z,5.20
2018-12-30T08:33:02.740Z,5.63
2018-12-30T08:35:29.132Z,4.63
2018-12-30T08:37:55.496Z,5.60
2018-12-30T08:40:21.956Z,5.40
2018-12-30T08:42:48.531Z,4.87
2018-12-30T08:45:15.896Z,5.07
2018-12-30T08:47:42.471Z,4.83
2018-12-30T08:50:08.920Z,4.97
2018-12-30T08:52:35.392Z,4.90
2018-12-30T08:55:01.843Z,5.30
2018-12-30T08:57:28.215Z,5.37
2018-12-30T08:59:54.668Z,5.50
2018-12-30T09:02:21.127Z,5.47
2018-12-30T09:04:47.521Z,5.23
2018-12-30T09:07:14.072Z,5.87
2018-12-30T09:09:40.752Z,4.97
2018-12-30T09:12:07.313Z,4.97
2018-12-30T09:14:33.827Z,4.97
2018-12-30T09:17:00.460Z,4.70
2018-12-30T09:19:26.926Z,5.40
2018-12-30T09:21:53.278Z,4.87
2018-12-30T09:24:19.645Z,4.97
2018-12-30T09:26:46.099Z,4.63
2018-12-30T09:29:12.494Z,4.90
2018-12-30T09:31:38.941Z,4.10
2018-12-30T09:34:05.536Z,4.23
2018-12-30T09:36:31.989Z,4.30
2018-12-30T09:38:58.568Z,4.07
2018-12-30T09:41:24.923Z,4.43
2018-12-30T09:43:51.399Z,4.13
2018-12-30T09:46:17.845Z,4.07
2018-12-30T09:48:44.317Z,4.90
2018-12-30T09:51:10.760Z,4.20
2018-12-30T09:53:44.962Z,4.07
2018-12-30T09:56:05.619Z,3.43
2018-12-30T09:58:32.084Z,3.30
2018-12-30T10:00:58.636Z,3.10
2018-12-30T10:03:25.140Z,4.07
2018-12-30T10:05:51.533Z,2.90
2018-12-30T10:08:18.079Z,3.40
2018-12-30T10:10:44.547Z,3.00
2018-12-30T10:13:11.000Z,3.50
2018-12-30T10:15:37.481Z,4.03
2018-12-30T10:18:03.927Z,3.73
2018-12-30T10:20:30.397Z,3.50
2018-12-30T10:22:58.850Z,3.23
2018-12-30T10:25:25.143Z,3.70
2018-12-30T10:27:51.700Z,4.07
2018-12-30T10:30:18.177Z,4.37
2018-12-30T10:32:44.624Z,4.40
2018-12-30T10:35:11.101Z,3.80
2018-12-30T10:37:37.707Z,4.17
2018-12-30T10:40:04.285Z,3.97
2018-12-30T10:42:30.844Z,4.27
2018-12-30T10:44:57.445Z,5.00
2018-12-30T10:47:23.872Z,5.57
2018-12-30T10:49:50.363Z,4.73
2018-12-30T10:52:16.888Z,4.97
2018-12-30T10:54:43.240Z,6.03
2018-12-30T10:57:09.808Z,4.60
2018-12-30T10:59:36.364Z,4.53
2018-12-30T11:02:02.944Z,4.03
2018-12-30T11:04:29.438Z,5.30
2018-12-30T11:06:55.828Z,4.57
2018-12-30T11:09:22.286Z,4.57
2018-12-30T11:11:48.876Z,4.87
2018-12-30T11:14:15.336Z,4.57
2018-12-30T11:16:41.818Z,3.47
2018-12-30T11:19:08.165Z,4.30
2018-12-30T11:21:34.640Z,4.60
2018-12-30T11:24:08.344Z,3.63
2018-12-30T11:26:29.564Z,3.10
2018-12-30T11:28:56.017Z,3.37
2018-12-30T11:31:22.496Z,3.03
2018-12-30T11:33:49.056Z,2.53
2018-12-30T11:36:15.529Z,2.87
2018-12-30T11:38:42.092Z,2.40
2018-12-30T11:41:08.576Z,3.33
2018-12-30T11:43:35.023Z,3.57
2018-12-30T11:46:01.603Z,3.00
2018-12-30T11:48:28.159Z,3.87
2018-12-30T11:50:54.522Z,3.40
2018-12-30T11:53:20.992Z,2.73
2018-12-30T11:55:47.462Z,3.23
2018-12-30T11:58:13.832Z,3.30
2018-12-30T12:00:40.280Z,3.33
2018-12-30T12:03:06.860Z,4.17
2018-12-30T12:05:33.260Z,2.77
2018-12-30T12:07:59.843Z,2.93
2018-12-30T12:10:26.371Z,3.43
2018-12-30T12:12:52.968Z,3.77
2018-12-30T12:15:19.423Z,3.87
2018-12-30T12:17:45.879Z,3.60
2018-12-30T12:20:12.352Z,3.30
2018-12-30T12:22:38.760Z,4.20
2018-12-30T12:25:05.346Z,3.97
2018-12-30T12:27:31.923Z,4.03
2018-12-30T12:29:58.409Z,4.77
2018-12-30T12:32:24.883Z,4.90
2018-12-30T12:34:51.368Z,4.83
2018-12-30T12:37:17.839Z,4.80
2018-12-30T12:39:44.339Z,6.30
2018-12-30T12:42:10.816Z,5.17
2018-12-30T12:44:37.432Z,6.20
2018-12-30T12:47:03.995Z,6.90
2018-12-30T12:49:30.476Z,6.30
2018-12-30T12:51:56.836Z,6.47
2018-12-30T12:54:23.256Z,5.60
2018-12-30T12:56:49.718Z,7.77
2018-12-30T12:59:16.281Z,6.03
2018-12-30T13:01:42.676Z,5.73
2018-12-30T13:04:09.185Z,6.77
2018-12-30T13:06:35.772Z,5.90
2018-12-30T13:09:04.194Z,6.07
2018-12-30T13:11:31.852Z,6.50
2018-12-30T13:13:58.416Z,5.43
2018-12-30T13:16:24.792Z,6.07
2018-12-30T13:18:51.164Z,5.13
2018-12-30T13:21:17.651Z,5.03
2018-12-30T13:23:44.108Z,5.10
2018-12-30T13:26:10.593Z,4.53
2018-12-30T13:28:37.162Z,4.73
2018-12-30T13:31:03.906Z,4.80
2018-12-30T13:33:30.380Z,4.20
2018-12-30T13:35:56.750Z,6.90
2018-12-30T13:38:28.340Z,4.20
2018-12-30T13:40:51.803Z,6.20
2018-12-30T13:43:18.181Z,5.80
2018-12-30T13:45:44.648Z,4.97
2018-12-30T13:48:11.133Z,5.33
2018-12-30T13:50:37.615Z,5.30
2018-12-30T13:53:04.019Z,4.40
2018-12-30T13:55:30.576Z,4.87
2018-12-30T13:57:57.187Z,4.93
2018-12-30T14:00:23.742Z,4.83
2018-12-30T14:02:50.240Z,4.03
2018-12-30T14:05:16.840Z,4.73
2018-12-30T14:07:43.428Z,4.87
2018-12-30T14:10:09.817Z,5.20
2018-12-30T14:12:36.209Z,5.90
2018-12-30T14:15:03.501Z,4.97
2018-12-30T14:17:30.053Z,5.47
2018-12-30T14:19:56.637Z,5.53
2018-12-30T14:22:23.111Z,4.63
2018-12-30T14:24:55.308Z,6.17
2018-12-30T14:27:18.060Z,5.00
2018-12-30T14:29:44.645Z,5.10
2018-12-30T14:32:11.103Z,5.50
2018-12-30T14:34:37.709Z,4.97
2018-12-30T14:37:04.173Z,4.93
2018-12-30T14:39:30.672Z,6.00
2018-12-30T14:41:57.144Z,5.57
2018-12-30T14:44:23.556Z,5.20
2018-12-30T14:46:50.126Z,6.33
2018-12-30T14:49:16.737Z,5.67
2018-12-30T14:51:43.193Z,6.67
2018-12-30T14:54:09.682Z,6.30
2018-12-30T14:56:36.153Z,5.37
2018-12-30T14:59:02.645Z,5.87
2018-12-30T15:01:29.011Z,5.90
2018-12-30T15:03:55.537Z,5.43
2018-12-30T15:06:22.092Z,5.77
2018-12-30T15:08:48.574Z,6.10
2018-12-30T15:11:15.060Z,5.87
2018-12-30T15:13:41.760Z,6.17
2018-12-30T15:16:08.349Z,6.23
2018-12-30T15:18:34.741Z,5.17
2018-12-30T15:21:01.231Z,6.93
2018-12-30T15:23:27.597Z,7.03
2018-12-30T15:25:54.109Z,5.73
2018-12-30T15:28:20.496Z,6.30
2018-12-30T15:30:47.084Z,6.57
2018-12-30T15:33:13.556Z,6.80
2018-12-30T15:35:39.948Z,6.83
2018-12-30T15:38:06.769Z,5.80
2018-12-30T15:40:33.255Z,5.83
2018-12-30T15:43:00.384Z,6.97
2018-12-30T15:45:26.880Z,8.17
2018-12-30T15:47:53.438Z,8.27
2018-12-30T15:50:19.935Z,6.93
2018-12-30T15:52:46.361Z,6.80
2018-12-30T15:55:19.363Z,6.80
2018-12-30T15:57:41.374Z,8.13
2018-12-30T16:00:08.241Z,7.13
2018-12-30T16:02:34.623Z,6.80
2018-12-30T16:05:01.483Z,7.13
2018-12-30T16:07:27.864Z,7.80
2018-12-30T16:09:54.234Z,7.60
2018-12-30T16:12:20.717Z,7.03
2018-12-30T16:14:47.184Z,7.77
2018-12-30T16:17:13.689Z,7.07
2018-12-30T16:19:40.096Z,7.90
2018-12-30T16:22:06.584Z,8.30
2018-12-30T16:24:33.061Z,8.20
2018-12-30T16:26:59.465Z,7.43
2018-12-30T16:29:25.925Z,7.73
2018-12-30T16:31:52.330Z,8.27
2018-12-30T16:34:18.793Z,7.30
2018-12-30T16:36:45.304Z,8.00
2018-12-30T16:39:11.942Z,8.00
2018-12-30T16:41:38.638Z,7.57
2018-12-30T16:44:05.036Z,8.63
2018-12-30T16:46:31.629Z,7.37
2018-12-30T16:48:58.101Z,7.27
2018-12-30T16:51:24.900Z,7.73
2018-12-30T16:53:51.364Z,8.17
2018-12-30T16:56:17.832Z,8.50
2018-12-30T16:58:44.400Z,9.83
2018-12-30T17:01:10.978Z,9.47
2018-12-30T17:03:37.452Z,8.83
2018-12-30T17:06:03.930Z,10.13
2018-12-30T17:08:30.409Z,10.07
2018-12-30T17:10:56.988Z,8.07
2018-12-30T17:13:23.386Z,8.43
2018-12-30T17:15:50.136Z,9.10
2018-12-30T17:18:16.710Z,7.57
2018-12-30T17:20:43.176Z,8.73
2018-12-30T17:23:09.665Z,8.37
2018-12-30T17:25:42.827Z,8.47
2018-12-30T17:28:04.463Z,8.43
2018-12-30T17:30:31.028Z,7.80
2018-12-30T17:32:57.628Z,7.83
2018-12-30T17:35:24.112Z,6.80
2018-12-30T17:37:50.596Z,6.30
2018-12-30T17:40:17.172Z,6.47
2018-12-30T17:42:43.666Z,5.40
2018-12-30T17:45:10.132Z,5.80
2018-12-30T17:47:36.612Z,5.20
2018-12-30T17:50:04.783Z,5.70
2018-12-30T17:52:31.277Z,5.57
2018-12-30T17:54:57.677Z,6.00
2018-12-30T17:57:24.144Z,5.67
2018-12-30T17:59:50.522Z,6.10
2018-12-30T18:02:16.925Z,5.57
2018-12-30T18:04:43.445Z,5.97
2018-12-30T18:07:09.841Z,6.20
2018-12-30T18:09:36.338Z,5.83
2018-12-30T18:12:02.889Z,6.43
2018-12-30T18:14:29.372Z,6.07
2018-12-30T18:16:55.960Z,5.60
2018-12-30T18:19:22.364Z,7.43
2018-12-30T18:21:48.829Z,6.10
2018-12-30T18:24:15.331Z,6.93
2018-12-30T18:26:41.798Z,6.40
2018-12-30T18:29:08.185Z,6.97
2018-12-30T18:31:34.775Z,6.47
2018-12-30T18:34:01.316Z,6.87
2018-12-30T18:36:27.707Z,7.47
2018-12-30T18:38:54.303Z,8.47
2018-12-30T18:41:20.660Z,7.67
2018-12-30T18:43:47.209Z,7.70
2018-12-30T18:46:13.680Z,8.40
2018-12-30T18:48:40.164Z,7.97
2018-12-30T18:51:06.780Z,8.77
2018-12-30T18:53:33.341Z,9.50
2018-12-30T18:56:06.486Z,9.20
2018-12-30T18:58:28.086Z,9.30
2018-12-30T19:00:54.689Z,9.57
2018-12-30T19:03:21.189Z,8.90
2018-12-30T19:05:47.653Z,9.17
2018-12-30T19:08:14.028Z,9.70
2018-12-30T19:10:40.517Z,10.57
2018-12-30T19:13:07.093Z,10.03
2018-12-30T19:15:34.692Z,10.77
2018-12-30T19:18:01.185Z,11.57
2018-12-30T19:20:27.664Z,10.50
2018-12-30T19:22:54.053Z,10.33
2018-12-30T19:25:20.445Z,10.43
2018-12-30T19:27:46.833Z,11.73
2018-12-30T19:30:13.311Z,12.30
2018-12-30T19:32:39.685Z,13.03
2018-12-30T19:35:06.078Z,13.03
2018-12-30T19:37:32.438Z,12.73
2018-12-30T19:39:58.870Z,13.30
2018-12-30T19:42:25.244Z,14.00
2018-12-30T19:44:51.839Z,13.73
2018-12-30T19:47:18.323Z,12.10
2018-12-30T19:49:44.891Z,12.97
2018-12-30T19:52:11.285Z,12.47
2018-12-30T19:54:37.756Z,12.93
2018-12-30T19:57:04.229Z,15.90
2018-12-30T19:59:30.692Z,13.63
2018-12-30T20:01:57.188Z,14.13
2018-12-30T20:04:23.677Z,13.03
2018-12-30T20:06:50.260Z,13.53
2018-12-30T20:09:16.728Z,12.03
2018-12-30T20:11:43.202Z,12.33
2018-12-30T20:14:09.664Z,12.70
2018-12-30T20:16:36.168Z,12.43
2018-12-30T20:19:02.745Z,12.80
2018-12-30T20:21:29.260Z,12.60
2018-12-30T20:23:55.653Z,15.07
2018-12-30T20:26:29.614Z,13.23
2018-12-30T20:28:50.520Z,14.07
2018-12-30T20:31:17.100Z,13.10
2018-12-30T20:33:43.519Z,14.43
2018-12-30T20:36:09.997Z,14.57
2018-12-30T20:38:36.599Z,14.83
2018-12-30T20:41:03.173Z,14.23
2018-12-30T20:43:29.682Z,14.70
2018-12-30T20:45:56.101Z,17.13
2018-12-30T20:48:22.613Z,14.00
2018-12-30T20:50:49.102Z,14.30
2018-12-30T20:53:15.562Z,14.30
2018-12-30T20:55:42.037Z,14.13
2018-12-30T20:58:08.471Z,14.70
2018-12-30T21:00:34.946Z,14.67
2018-12-30T21:03:01.578Z,15.10
2018-12-30T21:05:28.094Z,14.93
2018-12-30T21:07:54.713Z,14.13
2018-12-30T21:10:21.201Z,15.50
2018-12-30T21:12:47.616Z,15.80
2018-12-30T21:15:14.008Z,15.27
2018-12-30T21:17:40.512Z,15.57
2018-12-30T21:20:07.160Z,14.77
2018-12-30T21:22:38.750Z,16.07
2018-12-30T21:25:05.292Z,16.77
2018-12-30T21:27:32.354Z,14.60
2018-12-30T21:29:58.865Z,16.57
2018-12-30T21:32:25.340Z,16.50
2018-12-30T21:34:51.846Z,15.37
2018-12-30T21:37:18.218Z,16.50
2018-12-30T21:39:44.721Z,17.23
2018-12-30T21:42:11.194Z,15.20
2018-12-30T21:44:37.696Z,16.37
2018-12-30T21:47:04.183Z,14.83
2018-12-30T21:49:30.691Z,15.07
2018-12-30T21:51:57.105Z,16.73
2018-12-30T21:54:23.603Z,16.63
2018-12-30T21:56:54.742Z,15.33
2018-12-30T21:59:18.582Z,15.67
2018-12-30T22:01:45.074Z,16.73
2018-12-30T22:04:11.621Z,16.30
2018-12-30T22:06:38.205Z,16.30
2018-12-30T22:09:05.161Z,16.80
2018-12-30T22:11:31.742Z,16.53
2018-12-30T22:13:58.333Z,16.47
2018-12-30T22:16:24.932Z,15.80
2018-12-30T22:18:51.505Z,16.30
2018-12-30T22:21:18.021Z,16.57
2018-12-30T22:23:44.506Z,16.80
2018-12-30T22:26:10.997Z,16.53
2018-12-30T22:28:37.482Z,16.77
2018-12-30T22:31:03.992Z,15.67
2018-12-30T22:33:30.477Z,15.97
2018-12-30T22:35:56.994Z,16.50
2018-12-30T22:38:23.384Z,17.57
2018-12-30T22:40:49.972Z,17.03
2018-12-30T22:43:16.349Z,16.03
2018-12-30T22:45:42.957Z,15.97
2018-12-30T22:48:09.428Z,17.27
2018-12-30T22:50:36.202Z,16.57
2018-12-30T22:53:02.783Z,16.17
2018-12-30T22:55:29.284Z,16.17
2018-12-30T22:57:55.864Z,16.73
2018-12-30T23:00:24.152Z,16.20
2018-12-30T23:02:50.575Z,16.47
2018-12-30T23:05:17.503Z,15.73
2018-12-30T23:07:43.901Z,16.30
2018-12-30T23:10:10.318Z,15.97
2018-12-30T23:12:36.910Z,16.60
2018-12-30T23:15:03.500Z,16.17
2018-12-30T23:17:30.000Z,16.37
2018-12-30T23:19:56.481Z,17.10
2018-12-30T23:22:22.901Z,16.27
2018-12-30T23:24:49.381Z,16.00
2018-12-30T23:27:15.914Z,15.80
2018-12-30T23:29:42.392Z,14.90
2018-12-30T23:32:08.967Z,15.97
2018-12-30T23:34:35.364Z,16.40
2018-12-30T23:37:01.862Z,15.40
2018-12-30T23:39:28.332Z,15.67
2018-12-30T23:41:54.730Z,15.63
2018-12-30T23:44:21.332Z,15.30
2018-12-30T23:46:47.761Z,15.57
2018-12-30T23:49:14.250Z,15.30
2018-12-30T23:51:40.828Z,16.00
2018-12-30T23:54:07.322Z,16.13
2018-12-30T23:56:33.808Z,14.40
2018-12-30T23:59:00.306Z,16.17
